ExpreSS Skopelitis — SW3130 — position and weather

sailwx.info

Track history (hours):
 
Tides and Currents Weather Stations Pressure Air Temp Water Temp Dewpoint Dewpoint Depression Visibility Wind Speed Wind Dir Waves Ship Positions

ExpreSS Skopelitis

Last reported at 2017-Oct-18 11:44 UTC. Time now 2017-Oct-18 16:56 UTC.
Position N 36°59' E 025°22'.

Length 45 m; draft 2.4 m.

Type: Passenger vessel. MMSI: 237029400.

Date/timePositionNaut miles runAvg speedWind from/ knotsBaromVisibWave heightAir tempDewpointWater temp
2017-Oct-18 11:44N 36°59' E 025°22'312.4
2017-Oct-18 11:30N 37°02' E 025°21'5 9.5
2017-Oct-18 11:00N 37°06' E 025°22'0 0.0
2017-Oct-18 10:30N 37°06' E 025°22'0 0.0
2017-Oct-18 10:00N 37°06' E 025°22'0 0.0
2017-Oct-18 09:30N 37°06' E 025°22'0 0.0
2017-Oct-18 09:00N 37°06' E 025°22'5 9.4
2017-Oct-18 08:30N 37°02' E 025°21'3 0.1
2017-Oct-17 11:46N 36°59' E 025°22'312.2
2017-Oct-17 11:30N 37°02' E 025°21'4 8.9
2017-Oct-17 11:00N 37°06' E 025°22'0 0.0
2017-Oct-17 10:30N 37°06' E 025°22'0 0.0
2017-Oct-17 10:00N 37°06' E 025°22'0 0.0
2017-Oct-17 09:30N 37°06' E 025°22'0 0.0
2017-Oct-17 09:00N 37°06' E 025°22'0 0.0
2017-Oct-17 08:30N 37°06' E 025°22'0 0.0
2017-Oct-17 08:00N 37°06' E 025°22'4 8.0
2017-Oct-17 07:30N 37°03' E 025°21'4 0.2
2017-Oct-16 11:45N 36°59' E 025°22'312.2
2017-Oct-16 11:31N 37°02' E 025°21'5 9.2
2017-Oct-16 11:01N 37°06' E 025°22'0 0.0
2017-Oct-16 10:30N 37°06' E 025°22'0 0.0
2017-Oct-16 10:00N 37°06' E 025°22'0 0.0
2017-Oct-16 09:31N 37°06' E 025°22'0 0.0
2017-Oct-16 09:01N 37°06' E 025°22'4 8.6
2017-Oct-16 08:31N 37°02' E 025°21'3 0.1
2017-Oct-14 11:46N 36°59' E 025°22'312.5
2017-Oct-14 11:30N 37°02' E 025°21'4 8.5
2017-Oct-14 11:00N 37°06' E 025°22'0 0.0
2017-Oct-14 10:30N 37°06' E 025°22'0 0.0
2017-Oct-14 10:00N 37°06' E 025°22'0 0.0
2017-Oct-14 09:30N 37°06' E 025°22'0 0.4
2017-Oct-14 09:00N 37°06' E 025°22'5 9.5
2017-Oct-14 08:30N 37°02' E 025°21'2 0.1
2017-Oct-13 11:44N 36°59' E 025°22'312.5
2017-Oct-13 11:30N 37°02' E 025°21'5 9.3
2017-Oct-13 11:00N 37°06' E 025°22'0 0.0
2017-Oct-13 10:30N 37°06' E 025°22'0 0.0
2017-Oct-13 10:00N 37°06' E 025°22'0 0.0
2017-Oct-13 09:30N 37°06' E 025°22'0 0.0
2017-Oct-13 09:00N 37°06' E 025°22'0 0.0
2017-Oct-13 08:30N 37°06' E 025°22'0 0.0
2017-Oct-13 08:00N 37°06' E 025°22'3 6.3
2017-Oct-13 07:30N 37°04' E 025°20'5 0.2
2017-Oct-12 11:45N 36°59' E 025°22'312.5
2017-Oct-12 11:31N 37°02' E 025°21'5 9.1
2017-Oct-12 11:01N 37°06' E 025°22'0 0.0
2017-Oct-12 10:31N 37°06' E 025°22'0 0.0
2017-Oct-12 10:00N 37°06' E 025°22'0 0.0
2017-Oct-12 09:31N 37°06' E 025°22'0 0.0
2017-Oct-12 09:01N 37°06' E 025°22'0 0.0
2017-Oct-12 08:31N 37°06' E 025°22'1 1.9
2017-Oct-12 08:01N 37°06' E 025°21'510.0
2017-Oct-12 07:31N 37°01' E 025°21'2 0.0
2017-Oct-10 11:46N 36°59' E 025°22'312.1
2017-Oct-10 11:31N 37°02' E 025°21'5 9.0
2017-Oct-10 11:01N 37°06' E 025°22'0 0.0
2017-Oct-10 10:31N 37°06' E 025°22'0 0.0
2017-Oct-10 10:00N 37°06' E 025°22'0 0.0
2017-Oct-10 09:31N 37°06' E 025°22'0 0.0
2017-Oct-10 09:00N 37°06' E 025°22'0 0.0
2017-Oct-10 08:31N 37°06' E 025°22'0 0.0
2017-Oct-10 08:01N 37°06' E 025°22'3 6.0
2017-Oct-10 07:30N 37°04' E 025°20'5 0.2
2017-Oct-09 11:45N 36°59' E 025°22'312.1
2017-Oct-09 11:31N 37°02' E 025°21'5 9.2
2017-Oct-09 11:01N 37°06' E 025°22'0 0.0
2017-Oct-09 10:31N 37°06' E 025°22'0 0.0
2017-Oct-09 10:01N 37°06' E 025°22'0 0.0
2017-Oct-09 09:31N 37°06' E 025°22'0 0.5
2017-Oct-09 09:01N 37°06' E 025°22'5 9.8
2017-Oct-09 08:31N 37°01' E 025°21'  
Track history (hours):
 
Tides and Currents Weather Stations Pressure Air Temp Water Temp Dewpoint Dewpoint Depression Visibility Wind Speed Wind Dir Waves Ship Positions

ExpreSS Skopelitis

Last reported at 2017-Oct-18 11:44 UTC. Time now 2017-Oct-18 16:56 UTC.
Position N 36°59' E 025°22'.

Length 45 m; draft 2.4 m.

Type: Passenger vessel. MMSI: 237029400.

Date/timePositionNaut miles runAvg speedWind from/ knotsBaromVisibWave heightAir tempDewpointWater temp
2017-Oct-18 11:44N 36°59' E 025°22'312.4
2017-Oct-18 11:30N 37°02' E 025°21'5 9.5
2017-Oct-18 11:00N 37°06' E 025°22'0 0.0
2017-Oct-18 10:30N 37°06' E 025°22'0 0.0
2017-Oct-18 10:00N 37°06' E 025°22'0 0.0
2017-Oct-18 09:30N 37°06' E 025°22'0 0.0
2017-Oct-18 09:00N 37°06' E 025°22'5 9.4
2017-Oct-18 08:30N 37°02' E 025°21'3 0.1
2017-Oct-17 11:46N 36°59' E 025°22'312.2
2017-Oct-17 11:30N 37°02' E 025°21'4 8.9
2017-Oct-17 11:00N 37°06' E 025°22'0 0.0
2017-Oct-17 10:30N 37°06' E 025°22'0 0.0
2017-Oct-17 10:00N 37°06' E 025°22'0 0.0
2017-Oct-17 09:30N 37°06' E 025°22'0 0.0
2017-Oct-17 09:00N 37°06' E 025°22'0 0.0
2017-Oct-17 08:30N 37°06' E 025°22'0 0.0
2017-Oct-17 08:00N 37°06' E 025°22'4 8.0
2017-Oct-17 07:30N 37°03' E 025°21'4 0.2
2017-Oct-16 11:45N 36°59' E 025°22'312.2
2017-Oct-16 11:31N 37°02' E 025°21'5 9.2
2017-Oct-16 11:01N 37°06' E 025°22'0 0.0
2017-Oct-16 10:30N 37°06' E 025°22'0 0.0
2017-Oct-16 10:00N 37°06' E 025°22'0 0.0
2017-Oct-16 09:31N 37°06' E 025°22'0 0.0
2017-Oct-16 09:01N 37°06' E 025°22'4 8.6
2017-Oct-16 08:31N 37°02' E 025°21'3 0.1
2017-Oct-14 11:46N 36°59' E 025°22'312.5
2017-Oct-14 11:30N 37°02' E 025°21'4 8.5
2017-Oct-14 11:00N 37°06' E 025°22'0 0.0
2017-Oct-14 10:30N 37°06' E 025°22'0 0.0
2017-Oct-14 10:00N 37°06' E 025°22'0 0.0
2017-Oct-14 09:30N 37°06' E 025°22'0 0.4
2017-Oct-14 09:00N 37°06' E 025°22'5 9.5
2017-Oct-14 08:30N 37°02' E 025°21'2 0.1
2017-Oct-13 11:44N 36°59' E 025°22'312.5
2017-Oct-13 11:30N 37°02' E 025°21'5 9.3
2017-Oct-13 11:00N 37°06' E 025°22'0 0.0
2017-Oct-13 10:30N 37°06' E 025°22'0 0.0
2017-Oct-13 10:00N 37°06' E 025°22'0 0.0
2017-Oct-13 09:30N 37°06' E 025°22'0 0.0
2017-Oct-13 09:00N 37°06' E 025°22'0 0.0
2017-Oct-13 08:30N 37°06' E 025°22'0 0.0
2017-Oct-13 08:00N 37°06' E 025°22'3 6.3
2017-Oct-13 07:30N 37°04' E 025°20'5 0.2
2017-Oct-12 11:45N 36°59' E 025°22'312.5
2017-Oct-12 11:31N 37°02' E 025°21'5 9.1
2017-Oct-12 11:01N 37°06' E 025°22'0 0.0
2017-Oct-12 10:31N 37°06' E 025°22'0 0.0
2017-Oct-12 10:00N 37°06' E 025°22'0 0.0
2017-Oct-12 09:31N 37°06' E 025°22'0 0.0
2017-Oct-12 09:01N 37°06' E 025°22'0 0.0
2017-Oct-12 08:31N 37°06' E 025°22'1 1.9
2017-Oct-12 08:01N 37°06' E 025°21'510.0
2017-Oct-12 07:31N 37°01' E 025°21'2 0.0
2017-Oct-10 11:46N 36°59' E 025°22'312.1
2017-Oct-10 11:31N 37°02' E 025°21'5 9.0
2017-Oct-10 11:01N 37°06' E 025°22'0 0.0
2017-Oct-10 10:31N 37°06' E 025°22'0 0.0
2017-Oct-10 10:00N 37°06' E 025°22'0 0.0
2017-Oct-10 09:31N 37°06' E 025°22'0 0.0
2017-Oct-10 09:00N 37°06' E 025°22'0 0.0
2017-Oct-10 08:31N 37°06' E 025°22'0 0.0
2017-Oct-10 08:01N 37°06' E 025°22'3 6.0
2017-Oct-10 07:30N 37°04' E 025°20'5 0.2
2017-Oct-09 11:45N 36°59' E 025°22'312.1
2017-Oct-09 11:31N 37°02' E 025°21'5 9.2
2017-Oct-09 11:01N 37°06' E 025°22'0 0.0
2017-Oct-09 10:31N 37°06' E 025°22'0 0.0
2017-Oct-09 10:01N 37°06' E 025°22'0 0.0
2017-Oct-09 09:31N 37°06' E 025°22'0 0.5
2017-Oct-09 09:01N 37°06' E 025°22'5 9.8
2017-Oct-09 08:31N 37°01' E 025°21'  

Dump ship's entire track history